sensor_id;sensor_type;location;lat;lon;timestamp;P1;durP1;ratioP1;P2;durP2;ratioP2
44358;SDS011;30077;52.474;13.326;2023-11-21T00:03:21;9.93;;;6.17;;
44358;SDS011;30077;52.474;13.326;2023-11-21T00:13:24;17.42;;;9.80;;
44358;SDS011;30077;52.474;13.326;2023-11-21T00:23:25;24.93;;;14.13;;
44358;SDS011;30077;52.474;13.326;2023-11-21T00:33:25;31.52;;;16.95;;
44358;SDS011;30077;52.474;13.326;2023-11-21T00:43:27;35.92;;;18.23;;
44358;SDS011;30077;52.474;13.326;2023-11-21T00:53:28;46.20;;;21.13;;
44358;SDS011;30077;52.474;13.326;2023-11-21T01:03:29;59.47;;;22.70;;
44358;SDS011;30077;52.474;13.326;2023-11-21T01:13:30;55.92;;;24.05;;
44358;SDS011;30077;52.474;13.326;2023-11-21T01:23:31;74.78;;;28.83;;
44358;SDS011;30077;52.474;13.326;2023-11-21T01:33:32;82.18;;;30.63;;
44358;SDS011;30077;52.474;13.326;2023-11-21T01:43:33;88.47;;;30.70;;
44358;SDS011;30077;52.474;13.326;2023-11-21T01:53:37;89.30;;;30.92;;
44358;SDS011;30077;52.474;13.326;2023-11-21T02:03:39;86.63;;;32.00;;
44358;SDS011;30077;52.474;13.326;2023-11-21T02:13:39;80.22;;;26.98;;
44358;SDS011;30077;52.474;13.326;2023-11-21T02:23:43;56.30;;;20.42;;
44358;SDS011;30077;52.474;13.326;2023-11-21T02:33:44;58.47;;;20.38;;
44358;SDS011;30077;52.474;13.326;2023-11-21T02:43:48;47.30;;;16.57;;
44358;SDS011;30077;52.474;13.326;2023-11-21T02:53:49;34.88;;;14.52;;
44358;SDS011;30077;52.474;13.326;2023-11-21T03:03:51;22.17;;;12.52;;
44358;SDS011;30077;52.474;13.326;2023-11-21T03:13:52;25.95;;;13.63;;
44358;SDS011;30077;52.474;13.326;2023-11-21T03:23:52;27.67;;;13.50;;
44358;SDS011;30077;52.474;13.326;2023-11-21T03:33:53;29.20;;;13.60;;
44358;SDS011;30077;52.474;13.326;2023-11-21T03:43:55;18.98;;;11.77;;
44358;SDS011;30077;52.474;13.326;2023-11-21T03:53:56;23.83;;;14.02;;
44358;SDS011;30077;52.474;13.326;2023-11-21T04:03:56;22.07;;;13.10;;
44358;SDS011;30077;52.474;13.326;2023-11-21T04:13:57;21.67;;;12.37;;
44358;SDS011;30077;52.474;13.326;2023-11-21T04:23:58;25.70;;;13.75;;
44358;SDS011;30077;52.474;13.326;2023-11-21T04:33:59;25.03;;;12.97;;
44358;SDS011;30077;52.474;13.326;2023-11-21T04:43:59;21.33;;;13.13;;
44358;SDS011;30077;52.474;13.326;2023-11-21T04:54:00;22.27;;;13.05;;
44358;SDS011;30077;52.474;13.326;2023-11-21T05:04:01;23.80;;;12.63;;
44358;SDS011;30077;52.474;13.326;2023-11-21T05:14:02;19.13;;;11.18;;
44358;SDS011;30077;52.474;13.326;2023-11-21T05:24:04;22.13;;;12.18;;
44358;SDS011;30077;52.474;13.326;2023-11-21T05:34:05;18.63;;;9.98;;
44358;SDS011;30077;52.474;13.326;2023-11-21T05:44:06;19.70;;;10.50;;
44358;SDS011;30077;52.474;13.326;2023-11-21T05:54:06;20.13;;;11.37;;
44358;SDS011;30077;52.474;13.326;2023-11-21T06:04:07;17.80;;;9.32;;
44358;SDS011;30077;52.474;13.326;2023-11-21T06:14:09;24.55;;;11.05;;
44358;SDS011;30077;52.474;13.326;2023-11-21T06:24:10;19.33;;;9.23;;
44358;SDS011;30077;52.474;13.326;2023-11-21T06:34:11;12.48;;;7.22;;
44358;SDS011;30077;52.474;13.326;2023-11-21T06:44:12;13.32;;;8.27;;
44358;SDS011;30077;52.474;13.326;2023-11-21T06:54:13;12.63;;;7.25;;
44358;SDS011;30077;52.474;13.326;2023-11-21T07:04:14;10.68;;;6.18;;
44358;SDS011;30077;52.474;13.326;2023-11-21T07:14:15;12.63;;;7.18;;
44358;SDS011;30077;52.474;13.326;2023-11-21T07:24:17;13.57;;;7.75;;
44358;SDS011;30077;52.474;13.326;2023-11-21T07:34:17;11.83;;;7.00;;
44358;SDS011;30077;52.474;13.326;2023-11-21T07:44:19;13.43;;;7.65;;
44358;SDS011;30077;52.474;13.326;2023-11-21T07:54:20;13.27;;;7.72;;
44358;SDS011;30077;52.474;13.326;2023-11-21T08:30:40;14.43;;;7.60;;
44358;SDS011;30077;52.474;13.326;2023-11-21T08:40:41;11.77;;;5.93;;
44358;SDS011;30077;52.474;13.326;2023-11-21T08:50:42;8.83;;;5.47;;
44358;SDS011;30077;52.474;13.326;2023-11-21T09:00:43;14.20;;;6.13;;
44358;SDS011;30077;52.474;13.326;2023-11-21T09:10:46;13.95;;;6.30;;
44358;SDS011;30077;52.474;13.326;2023-11-21T09:20:47;15.10;;;6.85;;
44358;SDS011;30077;52.474;13.326;2023-11-21T09:30:48;18.02;;;7.40;;
44358;SDS011;30077;52.474;13.326;2023-11-21T09:40:50;14.85;;;7.05;;
44358;SDS011;30077;52.474;13.326;2023-11-21T09:50:53;15.88;;;6.93;;
44358;SDS011;30077;52.474;13.326;2023-11-21T10:00:55;14.95;;;6.72;;
44358;SDS011;30077;52.474;13.326;2023-11-21T10:10:57;21.98;;;8.25;;
44358;SDS011;30077;52.474;13.326;2023-11-21T10:20:59;19.33;;;8.88;;
44358;SDS011;30077;52.474;13.326;2023-11-21T10:31:00;19.20;;;7.65;;
44358;SDS011;30077;52.474;13.326;2023-11-21T10:41:01;24.97;;;10.17;;
44358;SDS011;30077;52.474;13.326;2023-11-21T10:51:08;18.35;;;7.68;;
44358;SDS011;30077;52.474;13.326;2023-11-21T11:01:09;13.65;;;6.32;;
44358;SDS011;30077;52.474;13.326;2023-11-21T11:11:14;10.40;;;5.47;;
44358;SDS011;30077;52.474;13.326;2023-11-21T11:42:13;8.38;;;4.95;;
44358;SDS011;30077;52.474;13.326;2023-11-21T12:02:49;8.23;;;5.43;;
44358;SDS011;30077;52.474;13.326;2023-11-21T12:12:54;9.73;;;5.00;;
44358;SDS011;30077;52.474;13.326;2023-11-21T12:32:59;7.20;;;4.97;;
44358;SDS011;30077;52.474;13.326;2023-11-21T12:43:01;11.82;;;5.43;;
44358;SDS011;30077;52.474;13.326;2023-11-21T12:53:04;14.50;;;5.72;;
44358;SDS011;30077;52.474;13.326;2023-11-21T13:03:12;7.47;;;5.07;;
44358;SDS011;30077;52.474;13.326;2023-11-21T13:13:17;8.75;;;4.90;;
44358;SDS011;30077;52.474;13.326;2023-11-21T13:23:18;11.40;;;6.30;;
44358;SDS011;30077;52.474;13.326;2023-11-21T13:33:18;12.73;;;7.07;;
44358;SDS011;30077;52.474;13.326;2023-11-21T13:43:22;15.57;;;7.95;;
44358;SDS011;30077;52.474;13.326;2023-11-21T13:53:25;14.27;;;7.47;;
44358;SDS011;30077;52.474;13.326;2023-11-21T14:03:26;17.02;;;8.45;;
44358;SDS011;30077;52.474;13.326;2023-11-21T14:13:39;24.42;;;11.27;;
44358;SDS011;30077;52.474;13.326;2023-11-21T14:23:45;28.52;;;13.70;;
44358;SDS011;30077;52.474;13.326;2023-11-21T14:33:46;26.63;;;13.70;;
44358;SDS011;30077;52.474;13.326;2023-11-21T14:43:47;32.75;;;15.75;;
44358;SDS011;30077;52.474;13.326;2023-11-21T14:53:49;30.50;;;16.02;;
44358;SDS011;30077;52.474;13.326;2023-11-21T15:03:59;32.17;;;17.85;;
44358;SDS011;30077;52.474;13.326;2023-11-21T15:14:00;41.45;;;22.42;;
44358;SDS011;30077;52.474;13.326;2023-11-21T15:24:06;41.05;;;21.90;;
44358;SDS011;30077;52.474;13.326;2023-11-21T15:34:07;34.08;;;18.20;;
44358;SDS011;30077;52.474;13.326;2023-11-21T15:44:08;35.17;;;18.20;;
44358;SDS011;30077;52.474;13.326;2023-11-21T15:54:11;36.78;;;19.40;;
44358;SDS011;30077;52.474;13.326;2023-11-21T16:04:12;37.27;;;21.27;;
44358;SDS011;30077;52.474;13.326;2023-11-21T16:14:17;38.00;;;19.35;;
44358;SDS011;30077;52.474;13.326;2023-11-21T16:24:19;34.30;;;17.75;;
44358;SDS011;30077;52.474;13.326;2023-11-21T16:34:21;35.50;;;18.13;;
44358;SDS011;30077;52.474;13.326;2023-11-21T16:44:21;32.65;;;16.50;;
44358;SDS011;30077;52.474;13.326;2023-11-21T16:54:22;31.25;;;15.88;;
44358;SDS011;30077;52.474;13.326;2023-11-21T17:04:23;23.98;;;13.05;;
44358;SDS011;30077;52.474;13.326;2023-11-21T17:14:25;28.08;;;13.07;;
44358;SDS011;30077;52.474;13.326;2023-11-21T17:24:26;27.90;;;16.83;;
44358;SDS011;30077;52.474;13.326;2023-11-21T17:34:27;28.83;;;16.27;;
44358;SDS011;30077;52.474;13.326;2023-11-21T17:44:27;30.30;;;16.53;;
44358;SDS011;30077;52.474;13.326;2023-11-21T17:54:28;31.08;;;15.43;;
44358;SDS011;30077;52.474;13.326;2023-11-21T18:04:29;22.20;;;12.48;;
44358;SDS011;30077;52.474;13.326;2023-11-21T18:14:30;21.77;;;12.02;;
44358;SDS011;30077;52.474;13.326;2023-11-21T18:24:31;23.45;;;12.57;;
44358;SDS011;30077;52.474;13.326;2023-11-21T18:34:32;25.45;;;12.52;;
44358;SDS011;30077;52.474;13.326;2023-11-21T18:44:33;24.02;;;12.40;;
44358;SDS011;30077;52.474;13.326;2023-11-21T18:54:34;23.00;;;12.10;;
44358;SDS011;30077;52.474;13.326;2023-11-21T19:04:35;21.88;;;11.63;;
44358;SDS011;30077;52.474;13.326;2023-11-21T19:14:37;16.50;;;9.85;;
44358;SDS011;30077;52.474;13.326;2023-11-21T19:24:38;21.10;;;10.75;;
44358;SDS011;30077;52.474;13.326;2023-11-21T19:34:40;17.83;;;10.00;;
44358;SDS011;30077;52.474;13.326;2023-11-21T19:44:43;21.17;;;10.93;;
44358;SDS011;30077;52.474;13.326;2023-11-21T19:54:44;20.88;;;10.88;;
44358;SDS011;30077;52.474;13.326;2023-11-21T20:04:45;27.48;;;14.43;;
44358;SDS011;30077;52.474;13.326;2023-11-21T20:14:46;18.25;;;10.27;;
44358;SDS011;30077;52.474;13.326;2023-11-21T20:24:46;20.93;;;10.07;;
44358;SDS011;30077;52.474;13.326;2023-11-21T20:34:47;21.43;;;11.17;;
44358;SDS011;30077;52.474;13.326;2023-11-21T20:44:47;18.07;;;9.73;;
44358;SDS011;30077;52.474;13.326;2023-11-21T20:54:48;19.10;;;9.90;;
44358;SDS011;30077;52.474;13.326;2023-11-21T21:04:49;24.02;;;11.15;;
44358;SDS011;30077;52.474;13.326;2023-11-21T21:14:50;22.33;;;9.55;;
44358;SDS011;30077;52.474;13.326;2023-11-21T21:24:52;20.35;;;9.70;;
44358;SDS011;30077;52.474;13.326;2023-11-21T21:34:55;18.92;;;9.15;;
44358;SDS011;30077;52.474;13.326;2023-11-21T21:44:56;20.10;;;9.52;;
44358;SDS011;30077;52.474;13.326;2023-11-21T21:54:56;17.02;;;8.98;;
44358;SDS011;30077;52.474;13.326;2023-11-21T22:04:57;17.30;;;8.83;;
44358;SDS011;30077;52.474;13.326;2023-11-21T22:14:58;19.42;;;9.73;;
44358;SDS011;30077;52.474;13.326;2023-11-21T22:24:58;19.83;;;9.18;;
44358;SDS011;30077;52.474;13.326;2023-11-21T22:35:00;16.45;;;9.02;;
44358;SDS011;30077;52.474;13.326;2023-11-21T22:45:00;17.65;;;8.57;;
44358;SDS011;30077;52.474;13.326;2023-11-21T22:55:04;15.77;;;8.82;;
44358;SDS011;30077;52.474;13.326;2023-11-21T23:05:05;16.15;;;8.27;;
44358;SDS011;30077;52.474;13.326;2023-11-21T23:15:06;17.48;;;8.38;;
44358;SDS011;30077;52.474;13.326;2023-11-21T23:25:07;16.77;;;7.93;;
44358;SDS011;30077;52.474;13.326;2023-11-21T23:35:08;14.82;;;7.53;;
44358;SDS011;30077;52.474;13.326;2023-11-21T23:45:10;12.77;;;6.82;;
44358;SDS011;30077;52.474;13.326;2023-11-21T23:55:12;13.40;;;6.43;;
